createdAt,value
2018-12-16T00:00:21.900Z,-2.81
2018-12-16T00:01:21.931Z,-2.72
2018-12-16T00:02:21.990Z,-2.74
2018-12-16T00:03:22.006Z,-2.71
2018-12-16T00:04:22.041Z,-2.72
2018-12-16T00:05:22.077Z,-2.76
2018-12-16T00:06:22.119Z,-2.72
2018-12-16T00:07:22.174Z,-2.76
2018-12-16T00:08:22.182Z,-2.76
2018-12-16T00:09:22.218Z,-2.64
2018-12-16T00:10:22.273Z,-2.72
2018-12-16T00:11:22.290Z,-2.61
2018-12-16T00:12:22.355Z,-2.63
2018-12-16T00:13:22.386Z,-2.63
2018-12-16T00:14:22.398Z,-2.60
2018-12-16T00:15:22.432Z,-2.63
2018-12-16T00:16:22.474Z,-2.60
2018-12-16T00:17:22.503Z,-2.53
2018-12-16T00:18:22.577Z,-2.56
2018-12-16T00:19:22.580Z,-2.63
2018-12-16T00:20:22.614Z,-2.57
2018-12-16T00:21:22.654Z,-2.57
2018-12-16T00:22:22.683Z,-2.54
2018-12-16T00:23:22.796Z,-2.57
2018-12-16T00:24:22.753Z,-2.58
2018-12-16T00:25:22.789Z,-2.57
2018-12-16T00:26:22.825Z,-2.45
2018-12-16T00:27:22.860Z,-2.56
2018-12-16T00:28:22.921Z,-2.57
2018-12-16T00:29:22.940Z,-2.57
2018-12-16T00:30:22.966Z,-2.54
2018-12-16T00:31:23.011Z,-2.54
2018-12-16T00:32:23.042Z,-2.58
2018-12-16T00:33:23.114Z,-2.54
2018-12-16T00:34:23.115Z,-2.54
2018-12-16T00:35:23.157Z,-2.45
2018-12-16T00:36:23.180Z,-2.48
2018-12-16T00:37:23.219Z,-2.54
2018-12-16T00:38:23.274Z,-2.51
2018-12-16T00:39:23.322Z,-2.53
2018-12-16T00:40:23.328Z,-2.56
2018-12-16T00:41:23.369Z,-2.54
2018-12-16T00:42:23.405Z,-2.40
2018-12-16T00:43:23.433Z,-2.42
2018-12-16T00:44:23.503Z,-2.50
2018-12-16T00:45:23.508Z,-2.47
2018-12-16T00:46:23.549Z,-2.40
2018-12-16T00:47:23.579Z,-2.45
2018-12-16T00:48:23.616Z,-2.39
2018-12-16T00:49:23.667Z,-2.40
2018-12-16T00:50:23.689Z,-2.40
2018-12-16T00:51:23.720Z,-2.39
2018-12-16T00:52:23.759Z,-2.39
2018-12-16T00:53:23.803Z,-2.45
2018-12-16T00:54:23.855Z,-2.39
2018-12-16T00:55:23.864Z,-2.38
2018-12-16T00:56:23.899Z,-2.39
2018-12-16T00:57:23.947Z,-2.33
2018-12-16T00:58:23.974Z,-2.40
2018-12-16T00:59:24.043Z,-2.38
2018-12-16T01:00:24.066Z,-2.39
2018-12-16T01:01:24.084Z,-2.40
2018-12-16T01:02:24.113Z,-2.36
2018-12-16T01:03:24.178Z,-2.38
2018-12-16T01:04:24.207Z,-2.48
2018-12-16T01:05:24.223Z,-2.53
2018-12-16T01:06:24.261Z,-2.58
2018-12-16T01:07:24.294Z,-2.60
2018-12-16T01:08:24.332Z,-2.58
2018-12-16T01:09:24.387Z,-2.58
2018-12-16T01:10:24.407Z,-2.58
2018-12-16T01:11:24.436Z,-2.61
2018-12-16T01:12:24.481Z,-2.56
2018-12-16T01:13:24.518Z,-2.53
2018-12-16T01:14:24.571Z,-2.47
2018-12-16T01:15:24.580Z,-2.39
2018-12-16T01:16:24.622Z,-2.40
2018-12-16T01:17:24.651Z,-2.43
2018-12-16T01:18:24.697Z,-2.43
2018-12-16T01:19:24.745Z,-2.42
2018-12-16T01:20:24.792Z,-2.43
2018-12-16T01:21:24.857Z,-2.45
2018-12-16T01:22:24.831Z,-2.40
2018-12-16T01:23:24.868Z,-2.36
2018-12-16T01:24:24.938Z,-2.40
2018-12-16T01:25:24.948Z,-2.43
2018-12-16T01:26:24.976Z,-2.47
2018-12-16T01:27:25.028Z,-2.38
2018-12-16T01:28:25.054Z,-2.39
2018-12-16T01:29:25.103Z,-2.36
2018-12-16T01:30:25.130Z,-2.35
2018-12-16T01:31:25.154Z,-2.33
2018-12-16T01:32:25.211Z,-2.36
2018-12-16T01:33:25.229Z,-2.32
2018-12-16T01:34:25.263Z,-2.26
2018-12-16T01:35:25.318Z,-2.33
2018-12-16T01:36:25.334Z,-2.20
2018-12-16T01:37:25.370Z,-2.18
2018-12-16T01:38:25.409Z,-2.35
2018-12-16T01:39:25.445Z,-2.23
2018-12-16T01:40:25.541Z,-2.29
2018-12-16T01:41:25.512Z,-2.26
2018-12-16T01:42:25.565Z,-2.36
2018-12-16T01:43:25.584Z,-2.13
2018-12-16T01:44:25.621Z,-2.21
2018-12-16T01:45:25.689Z,-2.13
2018-12-16T01:46:25.697Z,-2.21
2018-12-16T01:47:25.728Z,-2.11
2018-12-16T01:48:25.794Z,-2.11
2018-12-16T01:49:25.838Z,-2.16
2018-12-16T01:50:25.866Z,-2.13
2018-12-16T01:51:25.875Z,-2.08
2018-12-16T01:52:25.911Z,-2.08
2018-12-16T01:53:25.945Z,-2.11
2018-12-16T01:54:25.981Z,-2.03
2018-12-16T01:55:26.050Z,-1.98
2018-12-16T01:56:26.087Z,-2.00
2018-12-16T01:57:26.096Z,-2.00
2018-12-16T01:58:26.172Z,-1.99
2018-12-16T01:59:26.163Z,-1.93
2018-12-16T02:00:26.221Z,-1.98
2018-12-16T02:01:26.249Z,-1.80
2018-12-16T02:02:26.275Z,-1.82
2018-12-16T02:03:26.307Z,-1.87
2018-12-16T02:04:26.354Z,-1.77
2018-12-16T02:05:26.387Z,-1.84
2018-12-16T02:06:26.438Z,-1.82
2018-12-16T02:07:26.453Z,-1.72
2018-12-16T02:08:26.490Z,-1.70
2018-12-16T02:09:26.524Z,-1.75
2018-12-16T02:10:26.566Z,-1.74
2018-12-16T02:11:26.618Z,-1.75
2018-12-16T02:12:26.651Z,-1.80
2018-12-16T02:13:26.687Z,-1.74
2018-12-16T02:14:26.710Z,-1.70
2018-12-16T02:15:26.743Z,-1.69
2018-12-16T02:16:26.800Z,-1.75
2018-12-16T02:17:26.812Z,-1.69
2018-12-16T02:18:26.854Z,-1.72
2018-12-16T02:19:26.888Z,-1.77
2018-12-16T02:20:26.924Z,-1.64
2018-12-16T02:21:26.985Z,-1.72
2018-12-16T02:22:27.017Z,-1.81
2018-12-16T02:23:27.034Z,-1.70
2018-12-16T02:24:27.084Z,-1.72
2018-12-16T02:25:27.108Z,-1.70
2018-12-16T02:26:27.166Z,-1.72
2018-12-16T02:27:27.195Z,-1.75
2018-12-16T02:28:27.216Z,-1.74
2018-12-16T02:29:27.250Z,-1.81
2018-12-16T02:30:27.291Z,-1.74
2018-12-16T02:31:27.327Z,-1.66
2018-12-16T02:32:27.396Z,-1.67
2018-12-16T02:33:27.397Z,-1.67
2018-12-16T02:34:27.447Z,-1.60
2018-12-16T02:35:27.469Z,-1.60
2018-12-16T02:36:27.510Z,-1.62
2018-12-16T02:37:27.580Z,-1.59
2018-12-16T02:38:27.579Z,-1.54
2018-12-16T02:39:27.616Z,-1.49
2018-12-16T02:40:27.653Z,-1.49
2018-12-16T02:41:27.713Z,-1.54
2018-12-16T02:42:27.746Z,-1.48
2018-12-16T02:43:27.813Z,-1.46
2018-12-16T02:44:27.802Z,-1.38
2018-12-16T02:45:27.831Z,-1.46
2018-12-16T02:46:27.873Z,-1.42
2018-12-16T02:47:27.929Z,-1.31
2018-12-16T02:48:27.967Z,-1.33
2018-12-16T02:49:27.991Z,-1.38
2018-12-16T02:50:28.042Z,-1.35
2018-12-16T02:51:28.055Z,-1.33
2018-12-16T02:52:28.099Z,-1.39
2018-12-16T02:53:28.153Z,-1.38
2018-12-16T02:54:28.171Z,-1.30
2018-12-16T02:55:28.203Z,-1.36
2018-12-16T02:56:28.239Z,-1.33
2018-12-16T02:57:28.278Z,-1.36
2018-12-16T02:58:28.335Z,-1.31
2018-12-16T02:59:28.348Z,-1.38
2018-12-16T03:00:28.395Z,-1.31
2018-12-16T03:01:28.430Z,-1.25
2018-12-16T03:02:28.459Z,-1.24
2018-12-16T03:03:28.512Z,-1.30
2018-12-16T03:04:28.548Z,-1.25
2018-12-16T03:05:28.567Z,-1.25
2018-12-16T03:06:28.642Z,-1.35
2018-12-16T03:07:28.640Z,-1.38
2018-12-16T03:08:28.802Z,-1.30
2018-12-16T03:09:28.714Z,-1.36
2018-12-16T03:10:28.753Z,-1.25
2018-12-16T03:11:28.790Z,-1.31
2018-12-16T03:12:28.825Z,-1.15
2018-12-16T03:13:28.886Z,-1.20
2018-12-16T03:14:28.898Z,-1.21
2018-12-16T03:15:28.936Z,-1.17
2018-12-16T03:16:28.977Z,-1.18
2018-12-16T03:17:29.013Z,-1.15
2018-12-16T03:18:29.065Z,-1.18
2018-12-16T03:19:29.099Z,-1.10
2018-12-16T03:20:29.119Z,-1.12
2018-12-16T03:21:29.155Z,-1.13
2018-12-16T03:22:29.192Z,-1.09
2018-12-16T03:23:29.249Z,-1.09
2018-12-16T03:24:29.287Z,-1.02
2018-12-16T03:25:29.306Z,-1.02
2018-12-16T03:26:35.639Z,-1.09
2018-12-16T03:27:29.378Z,-1.06
2018-12-16T03:28:29.415Z,-1.06
2018-12-16T03:29:29.449Z,-1.07
2018-12-16T03:30:29.511Z,-1.05
2018-12-16T03:31:29.533Z,-1.09
2018-12-16T03:32:29.565Z,-1.09
2018-12-16T03:33:29.612Z,-1.13
2018-12-16T03:34:29.666Z,-1.27
2018-12-16T03:35:29.677Z,-1.13
2018-12-16T03:36:29.724Z,-1.17
2018-12-16T03:37:29.746Z,-1.20
2018-12-16T03:38:29.791Z,-1.17
2018-12-16T03:39:29.840Z,-1.18
2018-12-16T03:40:29.877Z,-1.24
2018-12-16T03:41:29.895Z,-1.23
2018-12-16T03:42:29.940Z,-1.33
2018-12-16T03:43:29.971Z,-1.30
2018-12-16T03:44:30.010Z,-1.31
2018-12-16T03:45:30.070Z,-1.25
2018-12-16T03:46:30.087Z,-1.30
2018-12-16T03:47:30.117Z,-1.28
2018-12-16T03:48:30.164Z,-1.23
2018-12-16T03:49:30.193Z,-1.27
2018-12-16T03:50:30.250Z,-1.24
2018-12-16T03:51:30.308Z,-1.25
2018-12-16T03:52:30.301Z,-1.24
2018-12-16T03:53:30.340Z,-1.21
2018-12-16T03:54:30.379Z,-1.28
2018-12-16T03:55:30.428Z,-1.21
2018-12-16T03:56:30.456Z,-1.31
2018-12-16T03:57:30.503Z,-1.23
2018-12-16T03:58:30.528Z,-1.36
2018-12-16T03:59:30.568Z,-1.41
2018-12-16T04:00:30.620Z,-1.38
2018-12-16T04:01:30.639Z,-1.23
2018-12-16T04:02:30.697Z,-1.24
2018-12-16T04:03:30.706Z,-1.41
2018-12-16T04:04:30.744Z,-1.28
2018-12-16T04:05:30.798Z,-1.33
2018-12-16T04:06:30.823Z,-1.25
2018-12-16T04:07:30.915Z,-1.24
2018-12-16T04:08:30.916Z,-1.21
2018-12-16T04:09:30.962Z,-1.27
2018-12-16T04:10:30.996Z,-1.27
2018-12-16T04:11:31.024Z,-1.25
2018-12-16T04:12:31.038Z,-1.31
2018-12-16T04:13:31.075Z,-1.18
2018-12-16T04:14:31.114Z,-1.18
2018-12-16T04:15:31.153Z,-1.15
2018-12-16T04:16:31.207Z,-1.12
2018-12-16T04:17:31.224Z,-1.15
2018-12-16T04:18:31.260Z,-1.07
2018-12-16T04:19:31.307Z,-1.13
2018-12-16T04:20:31.344Z,-1.02
2018-12-16T04:21:31.389Z,-1.10
2018-12-16T04:22:31.430Z,-1.07
2018-12-16T04:23:31.438Z,-1.10
2018-12-16T04:24:31.480Z,-1.12
2018-12-16T04:25:31.516Z,-1.06
2018-12-16T04:26:31.570Z,-1.06
2018-12-16T04:27:31.604Z,-1.06
2018-12-16T04:28:31.647Z,-1.00
2018-12-16T04:29:31.672Z,-1.06
2018-12-16T04:30:31.699Z,-1.07
2018-12-16T04:31:31.758Z,-1.05
2018-12-16T04:32:31.776Z,-1.00
2018-12-16T04:33:31.843Z,-1.03
2018-12-16T04:34:31.846Z,-1.00
2018-12-16T04:35:31.883Z,-1.00
2018-12-16T04:36:31.925Z,-1.03
2018-12-16T04:37:31.975Z,-1.02
2018-12-16T04:38:31.998Z,-1.00
2018-12-16T04:39:32.036Z,-0.95
2018-12-16T04:40:32.064Z,-0.99
2018-12-16T04:41:32.102Z,-1.05
2018-12-16T04:42:32.157Z,-0.99
2018-12-16T04:43:32.184Z,-1.02
2018-12-16T04:44:32.214Z,-0.99
2018-12-16T04:45:32.258Z,-1.00
2018-12-16T04:46:32.310Z,-0.91
2018-12-16T04:47:32.345Z,-1.03
2018-12-16T04:48:32.359Z,-0.95
2018-12-16T04:49:32.397Z,-0.91
2018-12-16T04:50:32.481Z,-0.91
2018-12-16T04:51:32.473Z,-0.89
2018-12-16T04:52:32.563Z,-0.86
2018-12-16T04:53:36.940Z,-0.78
2018-12-16T04:54:32.581Z,-0.87
2018-12-16T04:55:32.618Z,-0.81
2018-12-16T04:56:32.657Z,-0.75
2018-12-16T04:57:32.708Z,-0.77
2018-12-16T04:58:32.745Z,-0.75
2018-12-16T04:59:32.773Z,-0.80
2018-12-16T05:00:32.816Z,-0.73
2018-12-16T05:01:32.836Z,-0.70
2018-12-16T05:02:32.872Z,-0.68
2018-12-16T05:03:32.930Z,-0.70
2018-12-16T05:04:32.946Z,-0.75
2018-12-16T05:05:32.985Z,-0.55
2018-12-16T05:06:33.033Z,-0.52
2018-12-16T05:07:33.057Z,-0.54
2018-12-16T05:08:33.121Z,-0.52
2018-12-16T05:09:33.128Z,-0.57
2018-12-16T05:10:33.169Z,-0.50
2018-12-16T05:11:33.204Z,-0.51
2018-12-16T05:12:33.241Z,-0.52
2018-12-16T05:13:33.305Z,-0.51
2018-12-16T05:14:33.341Z,-0.44
2018-12-16T05:15:33.357Z,-0.42
2018-12-16T05:16:33.406Z,-0.44
2018-12-16T05:17:33.423Z,-0.47
2018-12-16T05:18:33.487Z,-0.42
2018-12-16T05:19:33.500Z,-0.47
2018-12-16T05:20:33.537Z,-0.42
2018-12-16T05:21:33.571Z,-0.36
2018-12-16T05:22:33.610Z,-0.36
2018-12-16T05:23:33.662Z,-0.30
2018-12-16T05:24:33.698Z,-0.34
2018-12-16T05:25:33.723Z,-0.30
2018-12-16T05:26:33.754Z,-0.23
2018-12-16T05:27:33.792Z,-0.31
2018-12-16T05:28:33.828Z,-0.30
2018-12-16T05:29:33.885Z,-0.22
2018-12-16T05:30:33.901Z,-0.27
2018-12-16T05:31:33.938Z,-0.29
2018-12-16T05:32:33.982Z,-0.19
2018-12-16T05:33:34.063Z,-0.23
2018-12-16T05:34:34.079Z,-0.19
2018-12-16T05:35:34.133Z,-0.22
2018-12-16T05:36:34.141Z,-0.22
2018-12-16T05:37:34.162Z,-0.26
2018-12-16T05:38:34.199Z,-0.18
2018-12-16T05:39:34.257Z,-0.22
2018-12-16T05:40:34.276Z,-0.23
2018-12-16T05:41:34.309Z,-0.16
2018-12-16T05:42:34.348Z,-0.23
2018-12-16T05:43:34.398Z,-0.18
2018-12-16T05:44:34.518Z,-0.15
2018-12-16T05:45:34.459Z,-0.16
2018-12-16T05:46:34.496Z,-0.15
2018-12-16T05:47:34.533Z,-0.08
2018-12-16T05:48:34.569Z,-0.09
2018-12-16T05:49:34.633Z,-0.09
2018-12-16T05:50:34.674Z,-0.11
2018-12-16T05:51:34.682Z,-0.05
2018-12-16T05:52:34.721Z,-0.01
2018-12-16T05:53:34.758Z,0.00
2018-12-16T05:54:34.799Z,-0.06
2018-12-16T05:55:34.854Z,-0.08
2018-12-16T05:56:34.873Z,0.03
2018-12-16T05:57:34.916Z,0.06
2018-12-16T05:58:34.945Z,0.05
2018-12-16T05:59:34.988Z,0.00
2018-12-16T06:00:35.047Z,0.07
2018-12-16T06:01:35.060Z,0.02
2018-12-16T06:02:35.094Z,0.10
2018-12-16T06:03:35.134Z,0.06
2018-12-16T06:04:35.172Z,0.06
2018-12-16T06:05:35.232Z,-0.01
2018-12-16T06:06:35.251Z,0.03
2018-12-16T06:07:35.294Z,0.10
2018-12-16T06:08:35.328Z,0.05
2018-12-16T06:09:35.368Z,0.00
2018-12-16T06:10:35.412Z,0.07
2018-12-16T06:11:35.437Z,0.06
2018-12-16T06:12:35.479Z,0.10
2018-12-16T06:13:35.520Z,-0.05
2018-12-16T06:14:35.550Z,-0.09
2018-12-16T06:15:35.616Z,-0.13
2018-12-16T06:16:35.783Z,-0.18
2018-12-16T06:17:35.689Z,-0.24
2018-12-16T06:18:35.717Z,-0.22
2018-12-16T06:19:35.741Z,-0.27
2018-12-16T06:20:35.778Z,-0.29
2018-12-16T06:21:35.846Z,-0.33
2018-12-16T06:22:35.861Z,-0.36
2018-12-16T06:23:35.903Z,-0.30
2018-12-16T06:24:35.948Z,-0.41
2018-12-16T06:25:35.979Z,-0.45
2018-12-16T06:26:36.030Z,-0.39
2018-12-16T06:27:36.676Z,-0.41
2018-12-16T06:28:36.082Z,-0.45
2018-12-16T06:29:36.123Z,-0.41
2018-12-16T06:30:36.159Z,-0.45
2018-12-16T06:31:36.219Z,-0.47
2018-12-16T06:32:36.237Z,-0.52
2018-12-16T06:33:36.273Z,-0.52
2018-12-16T06:34:36.308Z,-0.41
2018-12-16T06:35:36.349Z,-0.51
2018-12-16T06:36:36.404Z,-0.47
2018-12-16T06:37:36.442Z,-0.47
2018-12-16T06:38:36.482Z,-0.41
2018-12-16T06:39:36.501Z,-0.44
2018-12-16T06:40:36.540Z,-0.47
2018-12-16T06:41:36.710Z,-0.42
2018-12-16T06:42:36.637Z,-0.48
2018-12-16T06:43:36.677Z,-0.41
2018-12-16T06:44:36.693Z,-0.44
2018-12-16T06:45:36.730Z,-0.48
2018-12-16T06:46:36.771Z,-0.45
2018-12-16T06:47:36.823Z,-0.48
2018-12-16T06:48:36.857Z,-0.45
2018-12-16T06:49:36.891Z,-0.45
2018-12-16T06:50:36.918Z,-0.44
2018-12-16T06:51:36.954Z,-0.37
2018-12-16T06:52:36.989Z,-0.33
2018-12-16T06:53:37.050Z,-0.29
2018-12-16T06:54:37.066Z,-0.34
2018-12-16T06:55:43.137Z,-0.33
2018-12-16T06:56:37.141Z,-0.18
2018-12-16T06:57:37.183Z,-0.26
2018-12-16T06:58:37.239Z,-0.22
2018-12-16T06:59:37.305Z,-0.23
2018-12-16T07:00:37.311Z,-0.09
2018-12-16T07:01:37.335Z,-0.11
2018-12-16T07:02:37.368Z,-0.08
2018-12-16T07:03:37.431Z,0.05
2018-12-16T07:04:37.445Z,-0.05
2018-12-16T07:05:37.485Z,0.07
2018-12-16T07:06:37.631Z,0.05
2018-12-16T07:07:37.559Z,-0.01
2018-12-16T07:08:37.615Z,0.09
2018-12-16T07:09:37.633Z,0.15
2018-12-16T07:10:37.678Z,0.18
2018-12-16T07:11:37.710Z,0.20
2018-12-16T07:12:37.752Z,0.16
2018-12-16T07:13:37.802Z,0.27
2018-12-16T07:14:37.823Z,0.25
2018-12-16T07:15:37.875Z,0.24
2018-12-16T07:16:37.905Z,0.16
2018-12-16T07:17:37.937Z,0.21
2018-12-16T07:18:37.996Z,0.24
2018-12-16T07:19:38.054Z,0.24
2018-12-16T07:20:38.050Z,0.27
2018-12-16T07:21:38.089Z,0.28
2018-12-16T07:22:38.130Z,0.21
2018-12-16T07:23:38.264Z,0.38
2018-12-16T07:24:38.241Z,0.38
2018-12-16T07:25:38.266Z,0.33
2018-12-16T07:26:38.287Z,0.36
2018-12-16T07:27:38.318Z,0.33
2018-12-16T07:28:38.357Z,0.39
2018-12-16T07:29:38.419Z,0.36
2018-12-16T07:30:38.445Z,0.41
2018-12-16T07:31:38.519Z,0.41
2018-12-16T07:32:38.517Z,0.42
2018-12-16T07:33:38.547Z,0.45
2018-12-16T07:34:38.606Z,0.51
2018-12-16T07:35:38.659Z,0.46
2018-12-16T07:36:38.661Z,0.53
2018-12-16T07:37:38.698Z,0.58
2018-12-16T07:38:38.737Z,0.60
2018-12-16T07:39:38.815Z,0.65
2018-12-16T07:40:38.830Z,0.67
2018-12-16T07:41:38.870Z,0.65
2018-12-16T07:42:38.892Z,0.62
2018-12-16T07:43:38.941Z,0.70
2018-12-16T07:44:38.995Z,0.67
2018-12-16T07:45:39.036Z,0.76
2018-12-16T07:46:39.044Z,0.70
2018-12-16T07:47:39.083Z,0.70
2018-12-16T07:48:39.161Z,0.85
2018-12-16T07:49:39.209Z,0.79
2018-12-16T07:50:39.272Z,0.80
2018-12-16T07:51:39.261Z,0.79
2018-12-16T07:52:39.320Z,0.85
2018-12-16T07:53:39.327Z,0.71
2018-12-16T07:54:39.394Z,0.86
2018-12-16T07:55:39.469Z,0.89
2018-12-16T07:56:39.485Z,0.89
2018-12-16T07:57:39.477Z,0.83
2018-12-16T07:58:39.547Z,0.89
2018-12-16T07:59:39.558Z,0.90
2018-12-16T08:00:39.632Z,0.94
2018-12-16T08:01:39.623Z,0.89
2018-12-16T08:02:39.661Z,0.89
2018-12-16T08:03:39.715Z,0.89
2018-12-16T08:04:39.761Z,0.97
2018-12-16T08:05:39.807Z,0.97
2018-12-16T08:06:39.822Z,1.00
2018-12-16T08:07:39.862Z,1.04
2018-12-16T08:08:39.898Z,1.04
2018-12-16T08:09:39.930Z,0.98
2018-12-16T08:10:40.003Z,1.10
2018-12-16T08:11:40.041Z,1.07
2018-12-16T08:12:40.053Z,1.12
2018-12-16T08:13:40.088Z,1.12
2018-12-16T08:14:40.234Z,1.08
2018-12-16T08:15:40.170Z,1.12
2018-12-16T08:16:40.305Z,1.12
2018-12-16T08:17:40.254Z,1.21
2018-12-16T08:18:40.287Z,1.15
2018-12-16T08:19:40.324Z,1.25
2018-12-16T08:20:40.369Z,1.24
2018-12-16T08:21:40.548Z,1.28
2018-12-16T08:22:40.442Z,1.18
2018-12-16T08:23:40.485Z,1.33
2018-12-16T08:24:40.519Z,1.28
2018-12-16T08:25:40.566Z,1.24
2018-12-16T08:26:40.624Z,1.36
2018-12-16T08:27:40.642Z,1.37
2018-12-16T08:28:40.678Z,1.29
2018-12-16T08:29:40.715Z,1.33
2018-12-16T08:30:40.763Z,1.22
2018-12-16T08:31:40.827Z,1.19
2018-12-16T08:32:40.879Z,1.18
2018-12-16T08:33:40.871Z,1.16
2018-12-16T08:34:40.912Z,1.18
2018-12-16T08:35:40.952Z,1.21
2018-12-16T08:36:40.990Z,1.22
2018-12-16T08:37:41.059Z,1.14
2018-12-16T08:38:41.071Z,1.24
2018-12-16T08:39:42.526Z,1.29
2018-12-16T08:40:41.153Z,1.29
2018-12-16T08:41:41.183Z,1.40
2018-12-16T08:42:41.247Z,1.36
2018-12-16T08:43:41.263Z,1.40
2018-12-16T08:44:41.302Z,1.37
2018-12-16T08:45:41.344Z,1.42
2018-12-16T08:46:41.381Z,1.47
2018-12-16T08:47:41.439Z,1.52
2018-12-16T08:48:41.469Z,1.51
2018-12-16T08:49:41.500Z,1.52
2018-12-16T08:50:41.546Z,1.50
2018-12-16T08:51:41.578Z,1.60
2018-12-16T08:52:41.647Z,1.58
2018-12-16T08:53:41.660Z,1.62
2018-12-16T08:54:41.697Z,1.65
2018-12-16T08:55:41.736Z,1.64
2018-12-16T08:56:41.779Z,1.61
2018-12-16T08:57:41.837Z,1.72
2018-12-16T08:58:41.883Z,1.69
2018-12-16T08:59:41.890Z,1.72
2018-12-16T09:00:41.932Z,1.73
2018-12-16T09:01:41.969Z,1.78
2018-12-16T09:02:42.034Z,1.82
2018-12-16T09:03:42.071Z,1.80
2018-12-16T09:04:42.120Z,1.79
2018-12-16T09:05:42.145Z,1.76
2018-12-16T09:06:42.186Z,1.76
2018-12-16T09:07:42.238Z,1.87
2018-12-16T09:08:42.249Z,1.85
2018-12-16T09:09:42.286Z,1.79
2018-12-16T09:10:42.335Z,1.85
2018-12-16T09:11:42.388Z,1.99
2018-12-16T09:12:42.422Z,1.97
2018-12-16T09:13:42.467Z,1.93
2018-12-16T09:14:42.511Z,1.97
2018-12-16T09:15:42.530Z,1.97
2018-12-16T09:16:42.568Z,2.09
2018-12-16T09:17:42.635Z,2.09
2018-12-16T09:18:42.643Z,2.09
2018-12-16T09:19:42.730Z,2.08
2018-12-16T09:20:42.739Z,2.04
2018-12-16T09:21:42.765Z,2.06
2018-12-16T09:22:42.804Z,2.13
2018-12-16T09:23:42.869Z,2.13
2018-12-16T09:24:42.905Z,2.17
2018-12-16T09:25:42.925Z,2.17
2018-12-16T09:26:42.963Z,2.19
2018-12-16T09:27:43.007Z,2.23
2018-12-16T09:28:43.070Z,2.27
2018-12-16T09:29:43.134Z,2.28
2018-12-16T09:30:43.132Z,2.33
2018-12-16T09:31:43.167Z,2.37
2018-12-16T09:32:43.203Z,2.40
2018-12-16T09:33:43.243Z,2.33
2018-12-16T09:34:43.466Z,2.40
2018-12-16T09:35:43.334Z,2.35
2018-12-16T09:36:43.367Z,2.34
2018-12-16T09:37:43.406Z,2.44
2018-12-16T09:38:43.482Z,2.40
2018-12-16T09:39:43.495Z,2.41
2018-12-16T09:40:43.527Z,2.48
2018-12-16T09:41:43.565Z,2.41
2018-12-16T09:42:43.605Z,2.46
2018-12-16T09:43:43.672Z,2.33
2018-12-16T09:44:43.710Z,2.37
2018-12-16T09:45:49.459Z,2.35
2018-12-16T09:46:43.767Z,2.26
2018-12-16T09:47:43.811Z,2.34
2018-12-16T09:48:43.848Z,2.40
2018-12-16T09:49:43.910Z,2.34
2018-12-16T09:50:43.963Z,2.46
2018-12-16T09:51:43.970Z,2.48
2018-12-16T09:52:44.016Z,2.46
2018-12-16T09:53:44.059Z,2.56
2018-12-16T09:54:44.498Z,2.53
2018-12-16T09:55:44.161Z,2.55
2018-12-16T09:56:44.176Z,2.64
2018-12-16T09:57:44.219Z,2.59
2018-12-16T09:58:44.252Z,2.63
2018-12-16T09:59:44.291Z,2.61
2018-12-16T10:00:44.365Z,2.61
2018-12-16T10:01:44.382Z,2.71
2018-12-16T10:02:44.429Z,2.73
2018-12-16T10:03:44.466Z,2.76
2018-12-16T10:04:44.501Z,2.74
2018-12-16T10:05:44.554Z,2.79
2018-12-16T10:06:44.575Z,2.81
2018-12-16T10:07:44.625Z,2.76
2018-12-16T10:08:44.662Z,2.84
2018-12-16T10:09:44.722Z,2.79
2018-12-16T10:10:44.764Z,2.81
2018-12-16T10:11:44.819Z,2.79
2018-12-16T10:12:44.827Z,2.82
2018-12-16T10:13:44.877Z,2.79
2018-12-16T10:14:44.906Z,2.87
2018-12-16T10:15:44.960Z,2.79
2018-12-16T10:16:45.013Z,2.82
2018-12-16T10:17:45.033Z,2.77
2018-12-16T10:18:45.074Z,2.82
2018-12-16T10:19:45.106Z,2.71
2018-12-16T10:20:45.161Z,2.77
2018-12-16T10:21:45.207Z,2.71
2018-12-16T10:22:45.226Z,2.67
2018-12-16T10:23:45.271Z,2.79
2018-12-16T10:24:51.057Z,2.67
2018-12-16T10:25:45.351Z,2.71
2018-12-16T10:26:46.071Z,2.71
2018-12-16T10:27:45.433Z,2.71
2018-12-16T10:28:45.489Z,2.76
2018-12-16T10:29:45.515Z,2.79
2018-12-16T10:30:45.565Z,2.77
2018-12-16T10:31:45.687Z,2.84
2018-12-16T10:32:45.639Z,2.82
2018-12-16T10:33:45.675Z,2.81
2018-12-16T10:34:45.721Z,2.88
2018-12-16T10:35:45.760Z,2.97
2018-12-16T10:36:45.821Z,2.95
2018-12-16T10:37:45.875Z,2.97
2018-12-16T10:38:45.888Z,3.02
2018-12-16T10:39:45.947Z,3.07
2018-12-16T10:40:45.978Z,3.09
2018-12-16T10:41:46.002Z,3.13
2018-12-16T10:42:46.062Z,3.16
2018-12-16T10:43:46.082Z,3.16
2018-12-16T10:44:46.132Z,3.28
2018-12-16T10:45:46.164Z,3.33
2018-12-16T10:46:46.213Z,3.18
2018-12-16T10:47:46.276Z,3.18
2018-12-16T10:48:46.324Z,3.02
2018-12-16T10:49:46.344Z,3.02
2018-12-16T10:50:46.369Z,3.05
2018-12-16T10:51:46.421Z,2.98
2018-12-16T10:52:46.474Z,3.02
2018-12-16T10:53:46.530Z,3.00
2018-12-16T10:54:46.543Z,3.03
2018-12-16T10:55:46.585Z,2.98
2018-12-16T10:56:46.626Z,3.03
2018-12-16T10:57:46.697Z,3.05
2018-12-16T10:58:46.704Z,2.97
2018-12-16T10:59:46.742Z,2.95
2018-12-16T11:00:46.788Z,2.91
2018-12-16T11:01:46.818Z,2.92
2018-12-16T11:02:46.894Z,3.03
2018-12-16T11:03:47.044Z,2.94
2018-12-16T11:04:46.969Z,3.03
2018-12-16T11:05:46.990Z,3.05
2018-12-16T11:06:47.031Z,3.12
2018-12-16T11:07:47.083Z,3.13
2018-12-16T11:08:47.104Z,3.10
2018-12-16T11:09:47.171Z,3.12
2018-12-16T11:10:47.182Z,3.12
2018-12-16T11:11:47.240Z,3.09
2018-12-16T11:12:47.266Z,3.18
2018-12-16T11:13:47.335Z,3.12
2018-12-16T11:14:47.377Z,3.10
2018-12-16T11:15:47.402Z,3.10
2018-12-16T11:16:47.435Z,3.10
2018-12-16T11:17:47.466Z,3.16
2018-12-16T11:18:47.537Z,3.09
2018-12-16T11:19:47.609Z,3.15
2018-12-16T11:20:47.599Z,3.02
2018-12-16T11:21:47.681Z,3.03
2018-12-16T11:22:47.682Z,2.89
2018-12-16T11:23:53.553Z,2.94
2018-12-16T11:24:47.762Z,2.94
2018-12-16T11:25:47.791Z,2.81
2018-12-16T11:26:47.862Z,2.82
2018-12-16T11:27:47.878Z,2.76
2018-12-16T11:28:47.964Z,2.97
2018-12-16T11:29:47.954Z,2.94
2018-12-16T11:30:48.011Z,3.02
2018-12-16T11:31:48.035Z,3.03
2018-12-16T11:32:48.096Z,3.15
2018-12-16T11:33:48.167Z,3.21
2018-12-16T11:34:48.164Z,3.28
2018-12-16T11:35:48.198Z,3.30
2018-12-16T11:36:48.236Z,3.23
2018-12-16T11:37:48.290Z,3.15
2018-12-16T11:38:48.349Z,3.21
2018-12-16T11:39:48.364Z,3.16
2018-12-16T11:40:48.419Z,3.21
2018-12-16T11:41:48.439Z,3.20
2018-12-16T11:42:48.490Z,3.28
2018-12-16T11:43:48.555Z,3.24
2018-12-16T11:44:48.616Z,3.36
2018-12-16T11:45:48.597Z,3.39
2018-12-16T11:46:48.640Z,3.36
2018-12-16T11:47:48.688Z,3.43
2018-12-16T11:48:48.729Z,3.36
2018-12-16T11:49:48.785Z,3.49
2018-12-16T11:50:48.812Z,3.44
2018-12-16T11:51:48.866Z,3.58
2018-12-16T11:52:48.895Z,3.49
2018-12-16T11:53:48.945Z,3.53
2018-12-16T11:54:48.989Z,3.49
2018-12-16T11:55:49.002Z,3.50
2018-12-16T11:56:49.046Z,3.50
2018-12-16T11:57:49.100Z,3.54
2018-12-16T11:58:49.144Z,3.76
2018-12-16T11:59:49.194Z,3.79
2018-12-16T12:00:49.222Z,3.97
2018-12-16T12:01:49.245Z,4.04
2018-12-16T12:02:49.299Z,4.07
2018-12-16T12:03:49.338Z,3.97
2018-12-16T12:04:49.405Z,4.00
2018-12-16T12:05:49.439Z,4.07
2018-12-16T12:06:49.451Z,4.10
2018-12-16T12:07:49.491Z,4.22
2018-12-16T12:08:49.532Z,4.19
2018-12-16T12:09:49.638Z,4.28
2018-12-16T12:10:49.616Z,4.24
2018-12-16T12:11:49.681Z,4.19
2018-12-16T12:12:49.720Z,4.15
2018-12-16T12:13:49.737Z,4.28
2018-12-16T12:14:49.781Z,4.33
2018-12-16T12:15:49.842Z,4.29
2018-12-16T12:16:49.878Z,4.26
2018-12-16T12:17:49.906Z,4.29
2018-12-16T12:18:49.966Z,4.22
2018-12-16T12:19:50.000Z,4.28
2018-12-16T12:20:50.066Z,4.24
2018-12-16T12:21:50.090Z,4.26
2018-12-16T12:22:50.137Z,4.24
2018-12-16T12:23:50.156Z,4.21
2018-12-16T12:24:50.210Z,4.21
2018-12-16T12:25:50.245Z,4.16
2018-12-16T12:26:50.307Z,4.19
2018-12-16T12:27:50.322Z,4.18
2018-12-16T12:28:50.362Z,4.21
2018-12-16T12:29:50.405Z,4.16
2018-12-16T12:30:50.450Z,4.24
2018-12-16T12:31:51.116Z,4.24
2018-12-16T12:32:50.540Z,4.19
2018-12-16T12:33:50.569Z,4.29
2018-12-16T12:34:51.115Z,4.18
2018-12-16T12:35:50.675Z,4.28
2018-12-16T12:36:50.719Z,4.16
2018-12-16T12:37:50.768Z,4.28
2018-12-16T12:38:50.816Z,4.40
2018-12-16T12:39:50.829Z,4.40
2018-12-16T12:40:50.862Z,4.61
2018-12-16T12:41:50.936Z,4.73
2018-12-16T12:42:50.985Z,4.92
2018-12-16T12:43:50.998Z,5.04
2018-12-16T12:44:51.029Z,5.14
2018-12-16T12:45:51.090Z,5.19
2018-12-16T12:46:51.153Z,5.27
2018-12-16T12:47:51.181Z,5.28
2018-12-16T12:48:51.232Z,5.22
2018-12-16T12:49:51.251Z,5.30
2018-12-16T12:50:51.385Z,5.37
2018-12-16T12:51:51.411Z,5.23
2018-12-16T12:52:51.408Z,5.20
2018-12-16T12:53:51.411Z,5.07
2018-12-16T12:54:51.459Z,5.04
2018-12-16T12:55:51.546Z,5.04
2018-12-16T12:56:51.543Z,5.01
2018-12-16T12:57:51.605Z,4.92
2018-12-16T12:58:51.629Z,4.80
2018-12-16T12:59:51.674Z,4.65
2018-12-16T13:00:51.714Z,4.61
2018-12-16T13:01:51.764Z,4.65
2018-12-16T13:02:51.822Z,4.55
2018-12-16T13:03:51.843Z,4.46
2018-12-16T13:04:51.892Z,4.51